Time;durP1;ratioP1;P1;durP2;ratioP2;P2;SDS_P1;SDS_P2;PMS_P1;PMS_P2;Temp;Humidity;BMP_temperature;BMP_pressure;BME280_temperature;BME280_humidity;BME280_pressure;Samples;Min_cycle;Max_cycle;Signal;HPM_P1;HPM_P2
2019/10/12 00:01:15;;;;;;;1.59;1.49;;;;;;;19.54;57.03;100427.17;;;;-50
2019/10/12 00:04:16;;;;;;;1.68;1.58;;;;;;;19.54;57.04;100429.86;;;;-50
2019/10/12 00:07:16;;;;;;;1.72;1.62;;;;;;;19.53;57.02;100423.45;;;;-50
2019/10/12 00:11:43;;;;;;;1.78;1.60;;;;;;;19.52;57.05;100421.67;;;;-50
2019/10/12 00:17:20;;;;;;;1.73;1.58;;;;;;;19.52;57.04;100429.53;;;;-50
2019/10/12 00:20:16;;;;;;;1.93;1.49;;;;;;;19.51;57.03;100426.04;;;;-49
2019/10/12 00:23:16;;;;;;;1.70;1.60;;;;;;;19.50;57.05;100424.44;;;;-49
2019/10/12 00:26:16;;;;;;;2.11;1.61;;;;;;;19.50;57.05;100425.20;;;;-49
2019/10/12 00:29:16;;;;;;;1.67;1.57;;;;;;;19.49;57.02;100425.83;;;;-50
2019/10/12 00:32:15;;;;;;;1.84;1.64;;;;;;;19.50;57.02;100430.79;;;;-50
2019/10/12 00:35:15;;;;;;;1.67;1.57;;;;;;;19.49;57.01;100429.84;;;;-50
2019/10/12 00:38:15;;;;;;;1.74;1.61;;;;;;;19.50;56.99;100432.70;;;;-50
2019/10/12 00:41:15;;;;;;;1.70;1.60;;;;;;;19.48;57.03;100430.64;;;;-49
2019/10/12 00:44:16;;;;;;;1.70;1.60;;;;;;;19.49;56.98;100432.59;;;;-50
2019/10/12 00:47:16;;;;;;;1.69;1.59;;;;;;;19.48;57.00;100429.97;;;;-50
2019/10/12 00:50:15;;;;;;;1.76;1.54;;;;;;;19.48;57.01;100427.92;;;;-50
2019/10/12 00:53:15;;;;;;;2.05;1.55;;;;;;;19.47;57.05;100422.28;;;;-49
2019/10/12 00:56:15;;;;;;;1.67;1.57;;;;;;;19.48;56.98;100424.23;;;;-50
2019/10/12 00:59:15;;;;;;;1.80;1.70;;;;;;;19.46;56.99;100425.93;;;;-50
2019/10/12 01:02:16;;;;;;;1.78;1.68;;;;;;;19.48;56.98;100425.41;;;;-50
2019/10/12 01:05:16;;;;;;;1.64;1.53;;;;;;;19.47;56.95;100423.69;;;;-50
2019/10/12 01:08:15;;;;;;;1.70;1.60;;;;;;;19.46;56.97;100421.41;;;;-50
2019/10/12 01:11:15;;;;;;;1.84;1.74;;;;;;;19.45;56.98;100420.70;;;;-49
2019/10/12 01:14:15;;;;;;;1.68;1.58;;;;;;;19.45;56.98;100421.02;;;;-49
2019/10/12 01:17:15;;;;;;;1.68;1.58;;;;;;;19.45;57.00;100429.63;;;;-50
2019/10/12 01:20:15;;;;;;;1.79;1.69;;;;;;;19.44;56.97;100426.84;;;;-49
2019/10/12 01:23:15;;;;;;;1.69;1.59;;;;;;;19.45;56.96;100425.78;;;;-50
2019/10/12 01:26:15;;;;;;;1.70;1.60;;;;;;;19.44;56.96;100426.17;;;;-49
2019/10/12 01:29:15;;;;;;;1.66;1.56;;;;;;;19.44;56.95;100431.42;;;;-51
2019/10/12 01:32:15;;;;;;;1.70;1.60;;;;;;;19.42;56.99;100427.30;;;;-51
2019/10/12 01:35:15;;;;;;;1.80;1.70;;;;;;;19.42;56.98;100423.17;;;;-51
2019/10/12 01:38:15;;;;;;;1.75;1.60;;;;;;;19.42;56.97;100420.66;;;;-50
2019/10/12 01:41:15;;;;;;;1.69;1.55;;;;;;;19.42;56.90;100420.56;;;;-50
2019/10/12 01:44:16;;;;;;;1.70;1.60;;;;;;;19.43;56.89;100418.66;;;;-49
2019/10/12 01:47:15;;;;;;;1.65;1.55;;;;;;;19.42;56.88;100416.44;;;;-50
2019/10/12 01:50:15;;;;;;;1.79;1.69;;;;;;;19.41;56.92;100414.66;;;;-50
2019/10/12 01:53:15;;;;;;;1.63;1.53;;;;;;;19.41;56.89;100413.75;;;;-50
2019/10/12 01:56:15;;;;;;;1.71;1.61;;;;;;;19.41;56.95;100410.36;;;;-50
2019/10/12 01:59:16;;;;;;;1.72;1.62;;;;;;;19.41;56.90;100405.34;;;;-50
2019/10/12 02:02:16;;;;;;;1.79;1.60;;;;;;;19.40;56.90;100403.12;;;;-49
2019/10/12 02:05:15;;;;;;;1.62;1.52;;;;;;;19.40;56.93;100399.27;;;;-50
2019/10/12 02:11:15;;;;;;;1.69;1.59;;;;;;;19.39;56.92;100393.16;;;;-49
2019/10/12 02:14:15;;;;;;;1.60;1.50;;;;;;;19.39;56.91;100391.05;;;;-50
2019/10/12 02:17:16;;;;;;;1.70;1.60;;;;;;;19.39;56.90;100394.80;;;;-50
2019/10/12 02:20:16;;;;;;;1.78;1.64;;;;;;;19.38;56.89;100396.70;;;;-50
2019/10/12 02:23:15;;;;;;;1.95;1.53;;;;;;;19.38;56.92;100395.13;;;;-49
2019/10/12 02:26:15;;;;;;;1.67;1.57;;;;;;;19.38;56.89;100389.30;;;;-50
2019/10/12 02:29:15;;;;;;;2.17;1.60;;;;;;;19.37;56.92;100393.41;;;;-50
2019/10/12 02:32:15;;;;;;;1.70;1.60;;;;;;;19.38;56.94;100394.02;;;;-50
2019/10/12 02:35:15;;;;;;;1.70;1.60;;;;;;;19.37;56.92;100389.89;;;;-50
2019/10/12 02:38:15;;;;;;;1.53;1.43;;;;;;;19.37;56.89;100384.84;;;;-50
2019/10/12 02:41:15;;;;;;;1.94;1.51;;;;;;;19.37;56.96;100388.52;;;;-49
2019/10/12 02:44:15;;;;;;;1.70;1.60;;;;;;;19.36;56.88;100383.62;;;;-49
2019/10/12 02:47:15;;;;;;;1.79;1.66;;;;;;;19.36;56.88;100385.30;;;;-50
2019/10/12 02:50:15;;;;;;;1.64;1.54;;;;;;;19.36;56.89;100386.06;;;;-50
2019/10/12 02:53:15;;;;;;;1.70;1.60;;;;;;;19.35;56.87;100387.47;;;;-50
2019/10/12 02:56:16;;;;;;;1.61;1.51;;;;;;;19.35;56.89;100384.02;;;;-50
2019/10/12 02:59:16;;;;;;;1.79;1.67;;;;;;;19.35;56.88;100382.91;;;;-50
2019/10/12 03:02:15;;;;;;;1.81;1.70;;;;;;;19.34;56.89;100385.64;;;;-49
2019/10/12 03:05:15;;;;;;;1.60;1.50;;;;;;;19.35;56.90;100389.70;;;;-49
2019/10/12 03:08:15;;;;;;;1.69;1.59;;;;;;;19.34;56.91;100387.05;;;;-50
2019/10/12 03:11:15;;;;;;;1.59;1.49;;;;;;;19.34;56.90;100382.96;;;;-50
2019/10/12 03:14:15;;;;;;;1.57;1.47;;;;;;;19.34;56.89;100382.97;;;;-50
2019/10/12 03:17:15;;;;;;;1.71;1.59;;;;;;;19.34;56.88;100379.28;;;;-50
2019/10/12 03:20:15;;;;;;;1.67;1.57;;;;;;;19.33;56.90;100384.09;;;;-50
2019/10/12 03:23:15;;;;;;;1.69;1.59;;;;;;;19.33;56.89;100380.17;;;;-50
2019/10/12 03:26:15;;;;;;;1.75;1.65;;;;;;;19.33;56.84;100385.09;;;;-49
2019/10/12 03:29:16;;;;;;;1.63;1.53;;;;;;;19.32;56.86;100385.39;;;;-51
2019/10/12 03:32:15;;;;;;;1.52;1.42;;;;;;;19.31;56.91;100384.41;;;;-50
2019/10/12 03:35:16;;;;;;;1.60;1.50;;;;;;;19.31;56.89;100384.73;;;;-50
2019/10/12 03:38:15;;;;;;;1.66;1.56;;;;;;;19.32;56.88;100387.13;;;;-51
2019/10/12 03:41:15;;;;;;;1.82;1.65;;;;;;;19.32;56.89;100384.88;;;;-50
2019/10/12 03:44:15;;;;;;;1.67;1.50;;;;;;;19.31;56.84;100381.72;;;;-50
2019/10/12 03:49:15;;;;;;;1.70;1.60;;;;;;;19.30;56.86;100384.56;;;;-50
2019/10/12 03:55:15;;;;;;;1.62;1.52;;;;;;;19.31;56.88;100386.08;;;;-50
2019/10/12 03:58:15;;;;;;;1.63;1.53;;;;;;;19.29;56.87;100382.84;;;;-49
2019/10/12 04:01:15;;;;;;;1.60;1.50;;;;;;;19.30;56.86;100380.95;;;;-50
2019/10/12 04:04:15;;;;;;;1.67;1.55;;;;;;;19.29;56.84;100388.71;;;;-50
2019/10/12 04:07:15;;;;;;;1.59;1.49;;;;;;;19.29;56.85;100384.36;;;;-50
2019/10/12 04:10:16;;;;;;;1.60;1.50;;;;;;;19.30;56.82;100389.14;;;;-49
2019/10/12 04:13:16;;;;;;;1.47;1.37;;;;;;;19.30;56.84;100391.32;;;;-50
2019/10/12 04:16:16;;;;;;;1.61;1.51;;;;;;;19.30;56.83;100390.16;;;;-50
2019/10/12 04:19:15;;;;;;;1.60;1.50;;;;;;;19.30;56.81;100400.09;;;;-50
2019/10/12 04:25:15;;;;;;;1.53;1.43;;;;;;;19.29;56.81;100395.36;;;;-50
2019/10/12 04:28:15;;;;;;;1.71;1.61;;;;;;;19.28;56.82;100393.41;;;;-50
2019/10/12 04:31:15;;;;;;;1.59;1.49;;;;;;;19.28;56.85;100397.60;;;;-50
2019/10/12 04:34:16;;;;;;;1.69;1.59;;;;;;;19.28;56.79;100397.60;;;;-50
2019/10/12 04:37:15;;;;;;;1.65;1.55;;;;;;;19.28;56.88;100394.48;;;;-50
2019/10/12 04:40:15;;;;;;;1.50;1.40;;;;;;;19.28;56.91;100399.28;;;;-49
2019/10/12 04:43:15;;;;;;;1.63;1.53;;;;;;;19.29;56.87;100404.67;;;;-49
2019/10/12 04:46:15;;;;;;;1.75;1.61;;;;;;;19.30;56.83;100403.37;;;;-50
2019/10/12 04:49:16;;;;;;;1.82;1.50;;;;;;;19.32;56.87;100404.64;;;;-50
2019/10/12 04:52:16;;;;;;;1.54;1.44;;;;;;;19.33;56.78;100397.22;;;;-49
2019/10/12 04:55:15;;;;;;;1.60;1.50;;;;;;;19.36;56.74;100392.93;;;;-50
2019/10/12 04:58:15;;;;;;;1.67;1.57;;;;;;;19.39;56.66;100404.02;;;;-50
2019/10/12 05:01:15;;;;;;;1.59;1.49;;;;;;;19.41;56.60;100404.47;;;;-50
2019/10/12 05:04:15;;;;;;;1.60;1.50;;;;;;;19.45;56.67;100398.25;;;;-50
2019/10/12 05:07:15;;;;;;;1.60;1.50;;;;;;;19.49;56.63;100401.60;;;;-51
2019/10/12 05:10:15;;;;;;;1.57;1.47;;;;;;;19.52;56.59;100401.30;;;;-51
2019/10/12 05:13:15;;;;;;;1.63;1.53;;;;;;;19.55;56.74;100396.41;;;;-49
2019/10/12 05:16:15;;;;;;;1.67;1.57;;;;;;;19.59;56.80;100391.22;;;;-50
2019/10/12 05:19:15;;;;;;;1.54;1.44;;;;;;;19.62;56.86;100393.25;;;;-50
2019/10/12 05:22:15;;;;;;;1.67;1.40;;;;;;;19.65;56.83;100402.59;;;;-50
2019/10/12 05:25:15;;;;;;;1.47;1.37;;;;;;;19.69;56.94;100402.27;;;;-50
2019/10/12 05:28:15;;;;;;;1.52;1.42;;;;;;;19.72;56.96;100403.46;;;;-50
2019/10/12 05:31:15;;;;;;;1.63;1.53;;;;;;;19.75;56.97;100403.02;;;;-50
2019/10/12 05:34:15;;;;;;;1.57;1.45;;;;;;;19.77;56.99;100400.03;;;;-50
2019/10/12 05:37:15;;;;;;;1.61;1.51;;;;;;;19.80;56.98;100405.02;;;;-49
2019/10/12 05:40:15;;;;;;;1.60;1.50;;;;;;;19.83;56.92;100404.20;;;;-49
2019/10/12 05:43:15;;;;;;;1.50;1.40;;;;;;;19.85;57.01;100403.88;;;;-50
2019/10/12 05:46:15;;;;;;;1.58;1.48;;;;;;;19.87;56.94;100400.58;;;;-50
2019/10/12 05:49:15;;;;;;;1.50;1.40;;;;;;;19.89;57.00;100408.54;;;;-49
2019/10/12 05:52:15;;;;;;;1.50;1.40;;;;;;;19.91;56.96;100405.44;;;;-50
2019/10/12 05:55:15;;;;;;;1.50;1.40;;;;;;;19.93;56.90;100411.62;;;;-50
2019/10/12 05:58:15;;;;;;;1.47;1.37;;;;;;;19.94;56.91;100414.28;;;;-50
2019/10/12 06:01:15;;;;;;;1.50;1.40;;;;;;;19.94;56.91;100409.13;;;;-50
2019/10/12 06:04:15;;;;;;;1.54;1.44;;;;;;;19.96;56.89;100413.40;;;;-50
2019/10/12 06:07:16;;;;;;;1.56;1.46;;;;;;;19.97;56.78;100409.92;;;;-50
2019/10/12 06:10:15;;;;;;;1.50;1.40;;;;;;;19.98;56.75;100412.27;;;;-49
2019/10/12 06:13:15;;;;;;;1.57;1.47;;;;;;;19.99;56.75;100418.55;;;;-50
2019/10/12 06:19:19;;;;;;;1.60;1.50;;;;;;;19.99;56.71;100419.66;;;;-50
2019/10/12 06:22:16;;;;;;;1.51;1.41;;;;;;;20.00;56.65;100421.95;;;;-50
2019/10/12 06:25:15;;;;;;;1.60;1.50;;;;;;;20.00;56.64;100421.61;;;;-50
2019/10/12 06:28:15;;;;;;;1.43;1.33;;;;;;;20.01;56.61;100419.20;;;;-50
2019/10/12 06:31:15;;;;;;;1.50;1.40;;;;;;;20.01;56.60;100419.47;;;;-50
2019/10/12 06:34:15;;;;;;;1.50;1.40;;;;;;;20.01;56.50;100415.21;;;;-50
2019/10/12 06:37:15;;;;;;;1.48;1.38;;;;;;;20.01;56.54;100419.91;;;;-50
2019/10/12 06:40:15;;;;;;;1.61;1.51;;;;;;;20.01;56.49;100420.81;;;;-50
2019/10/12 06:43:15;;;;;;;1.60;1.50;;;;;;;20.01;56.50;100420.91;;;;-50
2019/10/12 06:46:15;;;;;;;1.49;1.39;;;;;;;20.01;56.43;100425.16;;;;-50
2019/10/12 06:49:15;;;;;;;1.41;1.31;;;;;;;20.01;56.43;100427.95;;;;-50
2019/10/12 06:52:15;;;;;;;1.40;1.30;;;;;;;20.01;56.41;100430.37;;;;-50
2019/10/12 06:55:15;;;;;;;1.60;1.50;;;;;;;20.01;56.29;100435.06;;;;-50
2019/10/12 06:58:15;;;;;;;1.85;1.51;;;;;;;20.00;56.30;100434.61;;;;-50
2019/10/12 07:01:15;;;;;;;1.47;1.37;;;;;;;20.00;56.24;100425.06;;;;-49
2019/10/12 07:04:15;;;;;;;1.46;1.36;;;;;;;20.00;56.22;100425.90;;;;-51
2019/10/12 07:07:15;;;;;;;1.55;1.45;;;;;;;20.01;56.22;100429.76;;;;-50
2019/10/12 07:10:15;;;;;;;1.62;1.52;;;;;;;19.99;56.12;100426.70;;;;-50
2019/10/12 07:13:15;;;;;;;1.50;1.40;;;;;;;20.00;56.15;100432.44;;;;-49
2019/10/12 07:16:15;;;;;;;1.50;1.40;;;;;;;19.99;56.12;100438.33;;;;-50
2019/10/12 07:19:15;;;;;;;1.51;1.41;;;;;;;20.00;56.09;100434.41;;;;-49
2019/10/12 07:22:16;;;;;;;1.45;1.35;;;;;;;19.99;56.12;100438.77;;;;-50
2019/10/12 07:25:15;;;;;;;1.41;1.31;;;;;;;20.00;56.12;100441.62;;;;-50
2019/10/12 07:28:15;;;;;;;1.53;1.43;;;;;;;20.00;56.08;100437.86;;;;-49
2019/10/12 07:31:15;;;;;;;1.43;1.33;;;;;;;19.99;56.09;100433.23;;;;-50
2019/10/12 07:34:15;;;;;;;1.52;1.42;;;;;;;19.99;56.07;100430.38;;;;-50
2019/10/12 07:37:15;;;;;;;1.60;1.50;;;;;;;19.99;56.04;100428.44;;;;-50
2019/10/12 07:40:15;;;;;;;1.63;1.53;;;;;;;19.99;56.04;100427.77;;;;-50
2019/10/12 07:43:15;;;;;;;1.88;1.45;;;;;;;20.00;56.30;100427.80;;;;-51
2019/10/12 07:46:15;;;;;;;11.02;1.74;;;;;;;19.99;55.99;100437.32;;;;-51
2019/10/12 07:49:15;;;;;;;2.81;1.53;;;;;;;20.00;56.13;100443.57;;;;-51
2019/10/12 07:52:15;;;;;;;3.18;1.58;;;;;;;20.02;56.06;100445.27;;;;-53
2019/10/12 07:55:16;;;;;;;1.73;1.63;;;;;;;20.02;56.12;100447.06;;;;-49
2019/10/12 07:58:15;;;;;;;3.36;1.55;;;;;;;20.03;56.13;100448.66;;;;-50
2019/10/12 08:01:15;;;;;;;2.67;1.52;;;;;;;20.05;56.19;100456.02;;;;-51
2019/10/12 08:04:15;;;;;;;2.13;1.60;;;;;;;20.07;56.00;100451.97;;;;-50
2019/10/12 08:07:15;;;;;;;4.11;1.60;;;;;;;20.08;56.09;100458.72;;;;-49
2019/10/12 08:10:15;;;;;;;2.45;1.56;;;;;;;20.09;56.00;100462.78;;;;-48
2019/10/12 08:13:15;;;;;;;1.93;1.69;;;;;;;20.09;56.07;100474.45;;;;-51
2019/10/12 08:16:15;;;;;;;3.07;1.85;;;;;;;20.10;55.93;100474.66;;;;-50
2019/10/12 08:19:15;;;;;;;1.93;1.59;;;;;;;20.10;56.04;100475.91;;;;-50
2019/10/12 08:22:15;;;;;;;1.89;1.70;;;;;;;20.09;56.11;100476.87;;;;-51
2019/10/12 08:25:15;;;;;;;1.87;1.61;;;;;;;20.08;56.08;100481.19;;;;-51
2019/10/12 08:28:15;;;;;;;2.03;1.82;;;;;;;20.08;56.10;100484.87;;;;-51
2019/10/12 08:31:15;;;;;;;2.19;1.71;;;;;;;20.07;56.09;100484.66;;;;-51
2019/10/12 08:34:15;;;;;;;1.95;1.70;;;;;;;20.07;56.10;100487.28;;;;-59
2019/10/12 08:37:15;;;;;;;1.81;1.63;;;;;;;20.05;56.04;100485.19;;;;-58
2019/10/12 08:40:15;;;;;;;1.93;1.70;;;;;;;20.05;56.08;100482.17;;;;-59
2019/10/12 08:43:15;;;;;;;2.28;1.75;;;;;;;20.06;56.07;100478.75;;;;-58
2019/10/12 08:46:15;;;;;;;2.25;1.67;;;;;;;20.05;56.02;100472.34;;;;-58
2019/10/12 08:49:15;;;;;;;1.97;1.57;;;;;;;20.05;56.02;100474.45;;;;-59
2019/10/12 08:52:15;;;;;;;4.11;1.66;;;;;;;20.04;56.02;100474.25;;;;-58
2019/10/12 08:55:16;;;;;;;2.57;1.61;;;;;;;20.05;56.01;100480.66;;;;-59
2019/10/12 08:58:15;;;;;;;2.53;1.66;;;;;;;20.04;55.96;100477.44;;;;-59
2019/10/12 09:01:15;;;;;;;2.18;1.61;;;;;;;20.04;55.97;100469.39;;;;-58
2019/10/12 09:04:15;;;;;;;1.69;1.59;;;;;;;20.04;55.95;100467.04;;;;-59
2019/10/12 09:07:15;;;;;;;1.69;1.50;;;;;;;20.04;55.94;100468.78;;;;-58
2019/10/12 09:10:15;;;;;;;1.77;1.58;;;;;;;20.04;55.99;100471.96;;;;-59
2019/10/12 09:13:15;;;;;;;2.02;1.69;;;;;;;20.03;55.93;100471.25;;;;-58
2019/10/12 09:16:15;;;;;;;1.89;1.69;;;;;;;20.03;56.04;100469.74;;;;-58
2019/10/12 09:19:15;;;;;;;4.01;1.69;;;;;;;20.03;56.15;100457.61;;;;-58
2019/10/12 09:22:15;;;;;;;1.85;1.55;;;;;;;20.06;56.09;100453.77;;;;-58
2019/10/12 09:25:15;;;;;;;2.15;1.70;;;;;;;20.06;56.12;100451.80;;;;-56
2019/10/12 09:28:15;;;;;;;2.15;1.50;;;;;;;20.08;56.19;100449.77;;;;-53
2019/10/12 09:31:15;;;;;;;2.56;1.75;;;;;;;20.09;56.22;100452.89;;;;-56
2019/10/12 09:34:15;;;;;;;2.76;1.63;;;;;;;20.10;56.28;100456.80;;;;-57
2019/10/12 09:37:15;;;;;;;1.79;1.53;;;;;;;20.10;56.31;100458.58;;;;-57
2019/10/12 09:40:15;;;;;;;1.77;1.60;;;;;;;20.12;56.36;100463.85;;;;-61
2019/10/12 09:43:15;;;;;;;2.27;1.65;;;;;;;20.12;56.36;100462.08;;;;-59
2019/10/12 09:46:15;;;;;;;3.55;1.71;;;;;;;20.13;56.37;100461.88;;;;-59
2019/10/12 09:49:15;;;;;;;1.65;1.55;;;;;;;20.12;56.35;100464.52;;;;-58
2019/10/12 09:52:15;;;;;;;3.34;1.63;;;;;;;20.13;56.33;100462.38;;;;-59
2019/10/12 09:55:15;;;;;;;1.98;1.52;;;;;;;20.12;56.24;100460.39;;;;-58
2019/10/12 09:58:15;;;;;;;1.77;1.64;;;;;;;20.11;56.24;100461.13;;;;-58
2019/10/12 10:01:15;;;;;;;1.73;1.50;;;;;;;20.12;56.23;100461.91;;;;-59
2019/10/12 10:07:15;;;;;;;2.65;1.55;;;;;;;20.10;56.13;100451.09;;;;-58
2019/10/12 10:10:15;;;;;;;1.71;1.60;;;;;;;20.11;56.12;100458.67;;;;-58
2019/10/12 10:13:15;;;;;;;2.21;1.56;;;;;;;20.10;56.07;100457.13;;;;-58
2019/10/12 10:16:15;;;;;;;2.68;1.62;;;;;;;20.09;56.04;100456.25;;;;-58
2019/10/12 10:19:15;;;;;;;1.76;1.53;;;;;;;20.08;56.02;100458.16;;;;-58
2019/10/12 10:22:15;;;;;;;1.99;1.50;;;;;;;20.08;56.04;100448.42;;;;-58
2019/10/12 10:25:15;;;;;;;2.03;1.63;;;;;;;20.07;55.97;100450.06;;;;-59
2019/10/12 10:28:15;;;;;;;1.69;1.59;;;;;;;20.07;56.03;100448.45;;;;-58
2019/10/12 10:31:15;;;;;;;1.95;1.73;;;;;;;20.07;55.97;100445.43;;;;-59
2019/10/12 10:34:15;;;;;;;2.15;1.55;;;;;;;20.06;55.98;100439.86;;;;-58
2019/10/12 10:37:15;;;;;;;2.16;1.66;;;;;;;20.05;55.96;100437.91;;;;-58
2019/10/12 10:40:15;;;;;;;2.90;1.44;;;;;;;20.05;55.97;100437.14;;;;-58
2019/10/12 10:43:15;;;;;;;1.69;1.58;;;;;;;20.04;55.96;100438.64;;;;-58
2019/10/12 10:46:15;;;;;;;3.09;1.50;;;;;;;20.03;55.94;100436.82;;;;-58
2019/10/12 10:49:15;;;;;;;2.23;1.65;;;;;;;20.04;55.97;100436.25;;;;-59
2019/10/12 10:52:15;;;;;;;1.79;1.53;;;;;;;20.04;55.92;100431.56;;;;-58
2019/10/12 10:55:15;;;;;;;1.72;1.46;;;;;;;20.03;55.92;100428.20;;;;-58
2019/10/12 10:58:15;;;;;;;1.77;1.51;;;;;;;20.02;55.93;100432.02;;;;-59
2019/10/12 11:01:15;;;;;;;2.16;1.61;;;;;;;20.02;55.90;100435.94;;;;-58
2019/10/12 11:04:15;;;;;;;2.07;1.50;;;;;;;20.01;55.92;100434.22;;;;-58
2019/10/12 11:07:15;;;;;;;1.77;1.50;;;;;;;20.02;55.89;100435.70;;;;-58
2019/10/12 11:10:15;;;;;;;2.31;1.56;;;;;;;20.02;55.91;100444.48;;;;-58
2019/10/12 11:13:15;;;;;;;1.65;1.55;;;;;;;20.00;55.94;100442.39;;;;-59
2019/10/12 11:16:15;;;;;;;1.71;1.55;;;;;;;20.00;55.94;100444.23;;;;-58
2019/10/12 11:19:15;;;;;;;2.09;1.59;;;;;;;20.00;55.91;100433.34;;;;-58
2019/10/12 11:22:15;;;;;;;1.70;1.60;;;;;;;20.00;55.91;100429.05;;;;-58
2019/10/12 11:25:15;;;;;;;1.66;1.53;;;;;;;19.99;55.92;100423.84;;;;-58
2019/10/12 11:28:15;;;;;;;2.73;1.51;;;;;;;19.98;55.90;100420.72;;;;-58
2019/10/12 11:31:15;;;;;;;1.55;1.45;;;;;;;19.99;55.91;100423.58;;;;-59
2019/10/12 11:34:15;;;;;;;1.78;1.53;;;;;;;19.99;55.91;100426.83;;;;-58
2019/10/12 11:37:15;;;;;;;2.31;1.42;;;;;;;19.97;55.91;100416.63;;;;-58
2019/10/12 11:40:15;;;;;;;1.87;1.57;;;;;;;19.96;55.88;100423.28;;;;-58
2019/10/12 11:43:15;;;;;;;1.65;1.40;;;;;;;19.95;55.92;100419.89;;;;-59
2019/10/12 11:46:15;;;;;;;1.79;1.55;;;;;;;19.96;55.95;100414.77;;;;-59
2019/10/12 11:49:15;;;;;;;1.91;1.63;;;;;;;19.95;55.95;100406.78;;;;-58
2019/10/12 11:52:15;;;;;;;1.50;1.40;;;;;;;19.95;55.95;100406.37;;;;-58
2019/10/12 11:55:15;;;;;;;1.63;1.53;;;;;;;19.94;55.96;100394.20;;;;-58
2019/10/12 11:58:15;;;;;;;1.50;1.40;;;;;;;19.94;55.93;100386.22;;;;-58
2019/10/12 12:01:15;;;;;;;1.59;1.49;;;;;;;19.94;55.93;100388.97;;;;-58
2019/10/12 12:04:15;;;;;;;1.69;1.59;;;;;;;19.94;55.94;100388.20;;;;-58
2019/10/12 12:07:15;;;;;;;1.59;1.49;;;;;;;19.93;55.95;100385.84;;;;-58
2019/10/12 12:10:15;;;;;;;1.59;1.49;;;;;;;19.94;55.91;100383.34;;;;-58
2019/10/12 12:13:15;;;;;;;1.93;1.51;;;;;;;19.93;56.05;100387.98;;;;-59
2019/10/12 12:16:15;;;;;;;2.67;1.59;;;;;;;19.93;56.16;100385.68;;;;-60
2019/10/12 12:19:15;;;;;;;1.50;1.40;;;;;;;19.92;56.25;100384.23;;;;-58
2019/10/12 12:22:15;;;;;;;1.91;1.51;;;;;;;19.94;56.35;100389.75;;;;-62
2019/10/12 12:25:15;;;;;;;2.25;1.60;;;;;;;19.95;56.39;100385.09;;;;-56
2019/10/12 12:28:15;;;;;;;3.29;1.43;;;;;;;19.97;56.48;100383.56;;;;-56
2019/10/12 12:31:15;;;;;;;2.43;1.66;;;;;;;19.98;56.41;100380.05;;;;-59
2019/10/12 12:34:15;;;;;;;5.67;1.60;;;;;;;19.99;56.52;100378.82;;;;-57
2019/10/12 12:37:15;;;;;;;2.35;1.60;;;;;;;19.99;56.54;100377.15;;;;-56
2019/10/12 12:40:15;;;;;;;3.43;1.76;;;;;;;20.02;56.46;100380.34;;;;-53
2019/10/12 12:43:15;;;;;;;5.49;1.70;;;;;;;20.02;56.48;100380.55;;;;-61
2019/10/12 12:46:15;;;;;;;3.55;1.65;;;;;;;20.03;56.52;100377.58;;;;-58
2019/10/12 12:49:15;;;;;;;2.15;1.47;;;;;;;20.04;56.51;100378.86;;;;-60
2019/10/12 12:52:15;;;;;;;2.05;1.58;;;;;;;20.05;56.47;100378.12;;;;-62
2019/10/12 12:55:15;;;;;;;2.54;1.65;;;;;;;20.04;56.51;100376.17;;;;-61
2019/10/12 12:58:15;;;;;;;2.38;1.61;;;;;;;20.04;56.55;100372.98;;;;-58
2019/10/12 13:01:15;;;;;;;1.83;1.57;;;;;;;20.04;56.49;100381.30;;;;-58
2019/10/12 13:04:15;;;;;;;2.12;1.43;;;;;;;20.03;56.50;100379.88;;;;-58
2019/10/12 13:07:15;;;;;;;2.43;1.50;;;;;;;20.03;56.45;100383.58;;;;-58
2019/10/12 13:10:15;;;;;;;2.61;1.64;;;;;;;20.02;56.44;100389.44;;;;-58
2019/10/12 13:13:15;;;;;;;1.80;1.58;;;;;;;20.02;56.37;100384.88;;;;-58
2019/10/12 13:16:15;;;;;;;2.74;1.69;;;;;;;20.01;56.39;100380.64;;;;-58
2019/10/12 13:19:15;;;;;;;3.11;1.56;;;;;;;20.01;56.33;100387.68;;;;-58
2019/10/12 13:22:15;;;;;;;2.53;1.51;;;;;;;20.01;56.31;100385.44;;;;-58
2019/10/12 13:25:15;;;;;;;2.60;1.63;;;;;;;19.99;56.30;100390.16;;;;-57
2019/10/12 13:28:15;;;;;;;3.44;1.66;;;;;;;19.98;56.29;100390.38;;;;-58
2019/10/12 13:31:15;;;;;;;2.14;1.60;;;;;;;19.99;56.29;100391.95;;;;-58
2019/10/12 13:34:15;;;;;;;1.93;1.55;;;;;;;19.98;56.27;100397.82;;;;-58
2019/10/12 13:37:15;;;;;;;3.11;1.65;;;;;;;19.97;56.29;100395.84;;;;-58
2019/10/12 13:40:15;;;;;;;1.76;1.61;;;;;;;19.96;56.26;100400.66;;;;-58
2019/10/12 13:43:15;;;;;;;2.30;1.54;;;;;;;19.97;56.27;100406.13;;;;-58
2019/10/12 13:46:15;;;;;;;1.54;1.41;;;;;;;19.97;56.26;100402.67;;;;-58
2019/10/12 13:49:15;;;;;;;2.79;1.61;;;;;;;19.96;56.22;100400.22;;;;-52
2019/10/12 13:52:15;;;;;;;3.37;1.53;;;;;;;19.95;56.26;100403.77;;;;-52
2019/10/12 13:55:15;;;;;;;1.84;1.50;;;;;;;19.95;56.24;100412.08;;;;-52
2019/10/12 13:58:15;;;;;;;5.65;1.77;;;;;;;19.94;56.24;100412.00;;;;-52
2019/10/12 14:01:15;;;;;;;2.45;1.62;;;;;;;19.95;56.17;100406.67;;;;-52
2019/10/12 14:04:15;;;;;;;1.77;1.55;;;;;;;19.94;56.21;100406.67;;;;-52
2019/10/12 14:07:15;;;;;;;1.75;1.62;;;;;;;19.93;56.20;100404.25;;;;-52
2019/10/12 14:10:15;;;;;;;1.65;1.49;;;;;;;19.92;56.17;100393.02;;;;-52
2019/10/12 14:13:15;;;;;;;2.08;1.50;;;;;;;19.92;56.24;100400.85;;;;-52
2019/10/12 14:16:15;;;;;;;2.17;1.64;;;;;;;19.92;56.23;100403.88;;;;-52
2019/10/12 14:19:15;;;;;;;1.95;1.51;;;;;;;19.91;56.25;100402.13;;;;-52
2019/10/12 14:22:15;;;;;;;1.61;1.50;;;;;;;19.89;56.24;100394.23;;;;-52
2019/10/12 14:25:15;;;;;;;1.82;1.55;;;;;;;19.90;56.21;100398.36;;;;-52
2019/10/12 14:28:15;;;;;;;2.19;1.68;;;;;;;19.90;56.23;100396.45;;;;-57
2019/10/12 14:31:15;;;;;;;1.68;1.49;;;;;;;19.90;56.25;100394.94;;;;-58
2019/10/12 14:34:15;;;;;;;2.34;1.40;;;;;;;19.90;56.22;100399.87;;;;-51
2019/10/12 14:37:15;;;;;;;1.77;1.50;;;;;;;19.88;56.22;100398.44;;;;-52
2019/10/12 14:40:15;;;;;;;2.19;1.56;;;;;;;19.89;56.23;100394.62;;;;-51
2019/10/12 14:43:15;;;;;;;1.50;1.40;;;;;;;19.87;56.23;100396.09;;;;-52
2019/10/12 14:46:15;;;;;;;2.28;1.55;;;;;;;19.88;56.28;100394.25;;;;-52
2019/10/12 14:49:15;;;;;;;1.75;1.49;;;;;;;19.86;56.27;100396.89;;;;-51
2019/10/12 14:52:15;;;;;;;2.09;1.60;;;;;;;19.87;56.44;100395.22;;;;-51
2019/10/12 14:55:15;;;;;;;1.60;1.50;;;;;;;19.87;56.44;100395.39;;;;-49
2019/10/12 14:58:15;;;;;;;2.39;1.49;;;;;;;19.88;56.56;100389.09;;;;-57
2019/10/12 15:01:15;;;;;;;3.77;1.52;;;;;;;19.90;56.54;100383.77;;;;-45
2019/10/12 15:04:15;;;;;;;2.91;1.49;;;;;;;19.92;56.55;100376.05;;;;-46
2019/10/12 15:07:15;;;;;;;5.74;1.61;;;;;;;19.95;56.67;100365.65;;;;-56
2019/10/12 15:10:15;;;;;;;10.83;1.69;;;;;;;19.96;56.70;100370.95;;;;-57
2019/10/12 15:13:15;;;;;;;2.77;1.88;;;;;;;19.96;56.74;100366.47;;;;-50
2019/10/12 15:16:15;;;;;;;3.53;1.70;;;;;;;19.96;56.72;100367.47;;;;-51
2019/10/12 15:19:15;;;;;;;6.61;1.65;;;;;;;19.97;56.94;100369.05;;;;-50
2019/10/12 15:22:15;;;;;;;3.99;1.70;;;;;;;19.98;56.84;100370.33;;;;-51
2019/10/12 15:25:15;;;;;;;3.41;1.54;;;;;;;20.00;56.87;100363.00;;;;-52
2019/10/12 15:28:15;;;;;;;3.05;1.70;;;;;;;20.00;56.85;100361.42;;;;-56
2019/10/12 15:31:15;;;;;;;2.22;1.87;;;;;;;19.99;56.72;100363.39;;;;-56
2019/10/12 15:34:15;;;;;;;5.01;1.80;;;;;;;19.99;56.73;100358.27;;;;-57
2019/10/12 15:37:15;;;;;;;2.73;1.93;;;;;;;19.99;56.64;100356.92;;;;-56
2019/10/12 15:40:15;;;;;;;4.08;1.79;;;;;;;19.98;56.63;100349.05;;;;-56
2019/10/12 15:43:15;;;;;;;4.51;1.80;;;;;;;19.99;56.64;100351.73;;;;-56
2019/10/12 15:46:15;;;;;;;3.19;1.68;;;;;;;19.97;56.60;100342.89;;;;-56
2019/10/12 15:49:15;;;;;;;4.58;1.81;;;;;;;19.96;56.61;100335.31;;;;-56
2019/10/12 15:52:15;;;;;;;5.54;1.81;;;;;;;19.95;56.59;100340.57;;;;-56
2019/10/12 15:55:15;;;;;;;1.90;1.60;;;;;;;19.94;56.52;100337.02;;;;-57
2019/10/12 15:58:15;;;;;;;2.05;1.75;;;;;;;19.94;56.55;100346.90;;;;-56
2019/10/12 16:01:15;;;;;;;2.19;1.75;;;;;;;19.94;56.55;100350.82;;;;-56
2019/10/12 16:04:15;;;;;;;3.20;1.62;;;;;;;19.93;56.51;100347.06;;;;-56
2019/10/12 16:07:15;;;;;;;2.81;1.62;;;;;;;19.93;56.51;100350.48;;;;-56
2019/10/12 16:10:15;;;;;;;5.22;1.77;;;;;;;19.92;56.52;100352.28;;;;-56
2019/10/12 16:13:15;;;;;;;3.15;1.74;;;;;;;19.91;56.49;100353.92;;;;-58
2019/10/12 16:16:15;;;;;;;2.30;1.60;;;;;;;19.91;56.49;100351.56;;;;-56
2019/10/12 16:19:15;;;;;;;3.25;1.71;;;;;;;19.91;56.49;100353.98;;;;-57
2019/10/12 16:22:15;;;;;;;3.17;1.68;;;;;;;19.89;56.52;100345.56;;;;-56
2019/10/12 16:25:15;;;;;;;2.55;1.70;;;;;;;19.87;56.52;100337.09;;;;-56
2019/10/12 16:28:15;;;;;;;4.69;1.76;;;;;;;19.88;56.52;100335.53;;;;-57
2019/10/12 16:31:15;;;;;;;2.60;1.76;;;;;;;19.87;56.51;100335.48;;;;-57
2019/10/12 16:34:15;;;;;;;3.20;1.66;;;;;;;19.88;56.48;100336.14;;;;-56
2019/10/12 16:37:15;;;;;;;4.11;1.64;;;;;;;19.87;56.49;100328.89;;;;-57
2019/10/12 16:40:15;;;;;;;2.05;1.70;;;;;;;19.88;56.50;100325.13;;;;-57
2019/10/12 16:43:15;;;;;;;2.59;1.59;;;;;;;19.87;56.50;100310.68;;;;-57
2019/10/12 16:46:15;;;;;;;1.76;1.66;;;;;;;19.86;56.49;100304.45;;;;-56
2019/10/12 16:49:15;;;;;;;2.63;1.61;;;;;;;19.84;56.54;100298.94;;;;-56
2019/10/12 16:52:15;;;;;;;2.31;1.57;;;;;;;19.84;56.50;100289.38;;;;-56
2019/10/12 16:55:15;;;;;;;3.14;1.63;;;;;;;19.86;56.51;100283.49;;;;-56
2019/10/12 16:58:15;;;;;;;2.28;1.70;;;;;;;19.85;56.51;100276.41;;;;-57
2019/10/12 17:01:15;;;;;;;1.65;1.51;;;;;;;19.84;56.52;100286.66;;;;-56
2019/10/12 17:04:15;;;;;;;1.92;1.55;;;;;;;19.84;56.51;100292.46;;;;-56